createdAt,value
2018-12-27T00:00:09.094Z,101503.76
2018-12-27T00:02:38.218Z,101497.70
2018-12-27T00:05:07.361Z,101500.97
2018-12-27T00:07:36.484Z,101505.56
2018-12-27T00:10:06.487Z,101499.00
2018-12-27T00:12:35.621Z,101500.16
2018-12-27T00:15:05.692Z,101494.91
2018-12-27T00:17:34.818Z,101485.08
2018-12-27T00:20:04.031Z,101484.26
2018-12-27T00:22:33.147Z,101477.70
2018-12-27T00:25:02.298Z,101472.75
2018-12-27T00:27:31.422Z,101473.08
2018-12-27T00:30:01.237Z,101465.88
2018-12-27T00:32:30.878Z,101462.43
2018-12-27T00:35:00.533Z,101459.81
2018-12-27T00:37:30.185Z,101458.83
2018-12-27T00:39:59.850Z,101456.86
2018-12-27T00:42:29.484Z,101458.62
2018-12-27T00:44:59.169Z,101456.02
2018-12-27T00:47:28.763Z,101456.53
2018-12-27T00:49:58.418Z,101451.75
2018-12-27T00:52:28.058Z,101454.70
2018-12-27T00:54:57.709Z,101455.19
2018-12-27T00:57:27.341Z,101450.28
2018-12-27T00:59:56.987Z,101460.11
2018-12-27T01:02:26.636Z,101461.75
2018-12-27T01:04:56.291Z,101463.39
2018-12-27T01:07:25.931Z,101459.30
2018-12-27T01:09:55.570Z,101457.81
2018-12-27T01:12:25.209Z,101449.30
2018-12-27T01:14:54.861Z,101441.89
2018-12-27T01:17:24.499Z,101442.25
2018-12-27T01:19:54.136Z,101437.80
2018-12-27T01:22:23.766Z,101436.33
2018-12-27T01:24:53.423Z,101437.77
2018-12-27T01:27:23.053Z,101436.78
2018-12-27T01:29:52.694Z,101430.40
2018-12-27T01:32:22.335Z,101431.84
2018-12-27T01:34:51.992Z,101427.92
2018-12-27T01:37:21.641Z,101425.95
2018-12-27T01:39:51.298Z,101428.24
2018-12-27T01:42:20.930Z,101427.72
2018-12-27T01:44:50.606Z,101422.52
2018-12-27T01:47:20.237Z,101426.28
2018-12-27T01:49:49.964Z,101428.38
2018-12-27T01:52:19.589Z,101428.87
2018-12-27T01:54:49.234Z,101429.36
2018-12-27T01:57:18.872Z,101433.95
2018-12-27T01:59:48.506Z,101428.52
2018-12-27T02:02:18.155Z,101430.52
2018-12-27T02:04:47.793Z,101429.66
2018-12-27T02:07:17.456Z,101428.35
2018-12-27T02:09:47.087Z,101432.97
2018-12-27T02:12:16.720Z,101428.35
2018-12-27T02:14:46.363Z,101423.27
2018-12-27T02:17:16.011Z,101425.57
2018-12-27T02:19:45.650Z,101427.70
2018-12-27T02:22:15.309Z,101426.55
2018-12-27T02:24:44.947Z,101424.06
2018-12-27T02:27:14.615Z,101427.02
2018-12-27T02:29:44.254Z,101429.14
2018-12-27T02:32:13.914Z,101430.29
2018-12-27T02:34:43.547Z,101427.02
2018-12-27T02:37:13.209Z,101430.95
2018-12-27T02:39:42.835Z,101437.14
2018-12-27T02:42:12.492Z,101428.30
2018-12-27T02:44:42.121Z,101420.27
2018-12-27T02:47:11.784Z,101421.42
2018-12-27T02:49:41.409Z,101421.42
2018-12-27T02:52:11.071Z,101414.51
2018-12-27T02:54:40.708Z,101417.00
2018-12-27T02:57:10.367Z,101418.95
2018-12-27T02:59:39.999Z,101407.66
2018-12-27T03:02:09.653Z,101405.50
2018-12-27T03:04:39.282Z,101401.89
2018-12-27T03:07:08.928Z,101401.92
2018-12-27T03:09:38.638Z,101398.29
2018-12-27T03:12:08.289Z,101395.67
2018-12-27T03:14:37.925Z,101396.00
2018-12-27T03:17:07.594Z,101392.39
2018-12-27T03:19:37.218Z,101384.38
2018-12-27T03:22:06.866Z,101383.36
2018-12-27T03:24:36.510Z,101382.22
2018-12-27T03:27:06.168Z,101378.28
2018-12-27T03:29:35.782Z,101380.41
2018-12-27T03:32:05.457Z,101372.06
2018-12-27T03:34:35.078Z,101370.39
2018-12-27T03:37:04.791Z,101366.47
2018-12-27T03:39:34.429Z,101363.02
2018-12-27T03:42:04.091Z,101357.62
2018-12-27T03:44:33.725Z,101348.42
2018-12-27T03:47:03.371Z,101344.00
2018-12-27T03:49:32.996Z,101337.78
2018-12-27T03:52:02.658Z,101338.59
2018-12-27T03:54:32.276Z,101343.68
2018-12-27T03:57:01.924Z,101343.34
2018-12-27T03:59:31.569Z,101338.08
2018-12-27T04:02:01.338Z,101342.02
2018-12-27T04:04:30.994Z,101338.74
2018-12-27T04:07:00.639Z,101334.61
2018-12-27T04:09:30.308Z,101335.27
2018-12-27T04:11:59.938Z,101339.20
2018-12-27T04:14:29.588Z,101335.77
2018-12-27T04:16:58.719Z,101336.06
2018-12-27T04:19:27.875Z,101334.91
2018-12-27T04:21:57.008Z,101326.41
2018-12-27T04:24:26.166Z,101320.52
2018-12-27T04:26:55.288Z,101318.38
2018-12-27T04:29:24.426Z,101310.36
2018-12-27T04:31:53.710Z,101308.89
2018-12-27T04:34:23.130Z,101306.41
2018-12-27T04:36:52.626Z,101309.51
2018-12-27T04:39:21.767Z,101308.53
2018-12-27T04:41:50.897Z,101305.13
2018-12-27T04:44:20.038Z,101308.36
2018-12-27T04:46:49.164Z,101308.06
2018-12-27T04:49:18.302Z,101299.39
2018-12-27T04:51:47.432Z,101299.06
2018-12-27T04:54:16.569Z,101295.30
2018-12-27T04:56:45.702Z,101295.30
2018-12-27T04:59:14.851Z,101300.69
2018-12-27T05:01:44.017Z,101304.14
2018-12-27T05:04:18.081Z,101306.27
2018-12-27T05:06:43.989Z,101317.06
2018-12-27T05:09:13.130Z,101318.88
2018-12-27T05:11:42.255Z,101322.80
2018-12-27T05:14:11.407Z,101330.16
2018-12-27T05:16:40.528Z,101325.42
2018-12-27T05:19:09.672Z,101327.22
2018-12-27T05:21:38.811Z,101329.19
2018-12-27T05:24:07.951Z,101321.81
2018-12-27T05:26:37.088Z,101320.34
2018-12-27T05:29:06.239Z,101320.34
2018-12-27T05:31:35.365Z,101330.34
2018-12-27T05:34:04.510Z,101331.16
2018-12-27T05:36:33.628Z,101344.45
2018-12-27T05:39:03.038Z,101347.03
2018-12-27T05:41:32.246Z,101347.88
2018-12-27T05:44:01.395Z,101340.52
2018-12-27T05:46:30.543Z,101329.38
2018-12-27T05:48:59.687Z,101329.02
2018-12-27T05:51:28.809Z,101332.30
2018-12-27T05:53:57.958Z,101329.34
2018-12-27T05:56:27.083Z,101337.53
2018-12-27T05:58:56.270Z,101339.02
2018-12-27T06:01:25.376Z,101333.61
2018-12-27T06:03:54.517Z,101336.91
2018-12-27T06:06:23.642Z,101329.52
2018-12-27T06:08:52.795Z,101323.32
2018-12-27T06:11:21.916Z,101323.16
2018-12-27T06:13:51.071Z,101322.17
2018-12-27T06:16:20.193Z,101317.75
2018-12-27T06:18:49.320Z,101318.90
2018-12-27T06:21:18.488Z,101319.06
2018-12-27T06:23:47.622Z,101317.26
2018-12-27T06:26:16.771Z,101318.41
2018-12-27T06:28:45.888Z,101315.13
2018-12-27T06:31:15.103Z,101310.55
2018-12-27T06:33:44.238Z,101308.42
2018-12-27T06:36:13.361Z,101297.94
2018-12-27T06:38:42.560Z,101294.36
2018-12-27T06:41:11.696Z,101297.94
2018-12-27T06:43:40.830Z,101299.44
2018-12-27T06:46:09.976Z,101301.22
2018-12-27T06:48:39.115Z,101307.92
2018-12-27T06:51:08.247Z,101304.32
2018-12-27T06:53:37.367Z,101302.20
2018-12-27T06:56:06.512Z,101308.25
2018-12-27T06:58:37.919Z,101306.64
2018-12-27T07:01:06.505Z,101305.95
2018-12-27T07:03:35.647Z,101301.05
2018-12-27T07:06:04.781Z,101295.64
2018-12-27T07:08:33.907Z,101301.24
2018-12-27T07:11:03.056Z,101297.94
2018-12-27T07:13:32.177Z,101294.17
2018-12-27T07:16:01.351Z,101295.67
2018-12-27T07:18:30.469Z,101289.75
2018-12-27T07:20:59.641Z,101303.20
2018-12-27T07:23:28.755Z,101298.45
2018-12-27T07:25:57.922Z,101302.23
2018-12-27T07:28:27.054Z,101303.05
2018-12-27T07:30:56.197Z,101306.45
2018-12-27T07:33:25.342Z,101306.78
2018-12-27T07:35:54.479Z,101307.10
2018-12-27T07:38:23.613Z,101311.52
2018-12-27T07:40:52.834Z,101311.56
2018-12-27T07:43:21.949Z,101309.10
2018-12-27T07:45:51.096Z,101311.06
2018-12-27T07:48:20.223Z,101305.63
2018-12-27T07:50:49.373Z,101310.73
2018-12-27T07:53:18.559Z,101317.45
2018-12-27T07:55:49.022Z,101317.26
2018-12-27T07:58:18.255Z,101320.06
2018-12-27T08:00:47.406Z,101317.94
2018-12-27T08:03:16.533Z,101323.18
2018-12-27T08:05:47.334Z,101316.80
2018-12-27T08:08:19.360Z,101321.55
2018-12-27T08:10:48.590Z,101323.67
2018-12-27T08:13:17.720Z,101323.67
2018-12-27T08:15:46.853Z,101329.73
2018-12-27T08:18:16.001Z,101330.71
2018-12-27T08:20:45.132Z,101328.91
2018-12-27T08:23:14.269Z,101333.82
2018-12-27T08:25:43.411Z,101334.48
2018-12-27T08:28:12.549Z,101334.02
2018-12-27T08:30:41.698Z,101340.89
2018-12-27T08:33:10.840Z,101333.86
2018-12-27T08:35:39.970Z,101338.27
2018-12-27T08:38:09.205Z,101333.36
2018-12-27T08:40:38.324Z,101331.53
2018-12-27T08:43:07.495Z,101335.46
2018-12-27T08:45:36.627Z,101335.79
2018-12-27T08:48:05.856Z,101332.98
2018-12-27T08:50:34.983Z,101333.96
2018-12-27T08:53:04.126Z,101326.76
2018-12-27T08:55:33.341Z,101330.36
2018-12-27T08:58:02.491Z,101335.41
2018-12-27T09:00:31.615Z,101342.78
2018-12-27T09:03:00.832Z,101342.94
2018-12-27T09:05:29.994Z,101334.10
2018-12-27T09:07:59.130Z,101334.59
2018-12-27T09:10:28.267Z,101334.42
2018-12-27T09:12:57.409Z,101327.22
2018-12-27T09:15:26.551Z,101328.56
2018-12-27T09:17:55.700Z,101320.87
2018-12-27T09:20:24.825Z,101320.38
2018-12-27T09:22:53.963Z,101322.50
2018-12-27T09:25:23.101Z,101326.43
2018-12-27T09:27:52.259Z,101318.56
2018-12-27T09:30:21.395Z,101317.29
2018-12-27T09:32:50.559Z,101322.88
2018-12-27T09:35:26.138Z,101322.20
2018-12-27T09:37:50.544Z,101323.83
2018-12-27T09:40:19.674Z,101327.93
2018-12-27T09:42:48.856Z,101324.81
2018-12-27T09:45:18.018Z,101324.95
2018-12-27T09:47:47.178Z,101323.81
2018-12-27T09:50:16.299Z,101325.94
2018-12-27T09:52:45.443Z,101321.19
2018-12-27T09:55:14.580Z,101321.19
2018-12-27T09:57:43.713Z,101317.59
2018-12-27T10:00:12.866Z,101316.14
2018-12-27T10:02:42.014Z,101318.13
2018-12-27T10:05:11.156Z,101313.54
2018-12-27T10:07:40.297Z,101306.20
2018-12-27T10:10:09.421Z,101303.25
2018-12-27T10:12:38.547Z,101293.58
2018-12-27T10:15:09.001Z,101297.38
2018-12-27T10:17:38.226Z,101294.08
2018-12-27T10:20:08.483Z,101295.06
2018-12-27T10:22:37.610Z,101292.11
2018-12-27T10:25:07.515Z,101298.17
2018-12-27T10:27:36.634Z,101294.08
2018-12-27T10:30:08.122Z,101293.42
2018-12-27T10:32:37.239Z,101288.02
2018-12-27T10:35:07.825Z,101284.09
2018-12-27T10:37:36.947Z,101281.11
2018-12-27T10:40:10.921Z,101288.00
2018-12-27T10:42:40.042Z,101288.98
2018-12-27T10:45:10.229Z,101281.59
2018-12-27T10:47:39.364Z,101279.30
2018-12-27T10:50:10.543Z,101273.09
2018-12-27T10:52:39.675Z,101271.63
2018-12-27T10:55:09.005Z,101264.74
2018-12-27T10:57:38.135Z,101262.14
2018-12-27T11:00:12.066Z,101263.45
2018-12-27T11:02:41.199Z,101248.39
2018-12-27T11:05:10.344Z,101248.55
2018-12-27T11:07:39.473Z,101242.48
2018-12-27T11:10:11.380Z,101239.08
2018-12-27T11:12:40.638Z,101238.25
2018-12-27T11:15:09.854Z,101233.98
2018-12-27T11:17:38.983Z,101230.38
2018-12-27T11:20:08.139Z,101226.78
2018-12-27T11:22:37.263Z,101226.80
2018-12-27T11:25:06.397Z,101227.95
2018-12-27T11:27:35.538Z,101225.82
2018-12-27T11:30:05.124Z,101220.25
2018-12-27T11:32:34.273Z,101220.77
2018-12-27T11:35:03.480Z,101212.58
2018-12-27T11:37:32.654Z,101206.19
2018-12-27T11:40:01.800Z,101201.27
2018-12-27T11:42:30.981Z,101198.98
2018-12-27T11:45:00.168Z,101195.86
2018-12-27T11:47:29.283Z,101189.00
2018-12-27T11:49:58.432Z,101195.05
2018-12-27T11:52:27.558Z,101192.63
2018-12-27T11:54:56.710Z,101194.58
2018-12-27T11:57:25.837Z,101187.53
2018-12-27T11:59:54.986Z,101186.08
2018-12-27T12:02:30.905Z,101180.19
2018-12-27T12:04:54.986Z,101175.78
2018-12-27T12:07:24.110Z,101173.16
2018-12-27T12:09:53.255Z,101177.40
2018-12-27T12:12:22.382Z,101170.88
2018-12-27T12:14:51.533Z,101166.28
2018-12-27T12:17:20.741Z,101163.16
2018-12-27T12:19:49.883Z,101164.83
2018-12-27T12:22:19.012Z,101165.47
2018-12-27T12:24:48.162Z,101165.48
2018-12-27T12:27:17.296Z,101165.48
2018-12-27T12:29:46.433Z,101160.73
2018-12-27T12:32:15.595Z,101161.22
2018-12-27T12:34:44.740Z,101156.46
2018-12-27T12:37:14.382Z,101155.97
2018-12-27T12:39:43.592Z,101157.79
2018-12-27T12:42:12.723Z,101152.88
2018-12-27T12:44:41.873Z,101148.95
2018-12-27T12:47:11.025Z,101141.56
2018-12-27T12:49:40.175Z,101141.09
2018-12-27T12:52:09.312Z,101137.79
2018-12-27T12:54:38.459Z,101141.06
2018-12-27T12:57:07.657Z,101132.72
2018-12-27T12:59:36.785Z,101135.17
2018-12-27T13:02:05.918Z,101130.58
2018-12-27T13:04:35.059Z,101130.25
2018-12-27T13:07:04.265Z,101128.28
2018-12-27T13:09:33.403Z,101133.88
2018-12-27T13:12:02.561Z,101132.73
2018-12-27T13:14:31.687Z,101129.13
2018-12-27T13:17:00.834Z,101124.35
2018-12-27T13:19:29.962Z,101127.15
2018-12-27T13:21:59.103Z,101130.75
2018-12-27T13:24:28.228Z,101130.77
2018-12-27T13:26:57.374Z,101130.25
2018-12-27T13:29:26.501Z,101129.45
2018-12-27T13:31:55.644Z,101123.56
2018-12-27T13:34:24.767Z,101123.72
2018-12-27T13:36:53.927Z,101130.92
2018-12-27T13:39:23.042Z,101126.98
2018-12-27T13:41:52.199Z,101133.23
2018-12-27T13:44:21.337Z,101128.48
2018-12-27T13:46:50.474Z,101127.98
2018-12-27T13:49:19.620Z,101131.10
2018-12-27T13:51:48.758Z,101120.94
2018-12-27T13:54:17.887Z,101117.98
2018-12-27T13:56:47.224Z,101119.95
2018-12-27T13:59:16.359Z,101120.45
2018-12-27T14:01:45.501Z,101118.97
2018-12-27T14:04:14.633Z,101118.64
2018-12-27T14:06:44.616Z,101118.81
2018-12-27T14:09:13.748Z,101117.51
2018-12-27T14:11:42.971Z,101113.58
2018-12-27T14:14:12.107Z,101108.16
2018-12-27T14:16:41.254Z,101102.27
2018-12-27T14:19:10.379Z,101098.49
2018-12-27T14:21:39.521Z,101104.39
2018-12-27T14:24:08.743Z,101107.34
2018-12-27T14:26:37.882Z,101105.53
2018-12-27T14:29:07.005Z,101097.67
2018-12-27T14:31:36.153Z,101099.14
2018-12-27T14:34:05.283Z,101098.33
2018-12-27T14:36:39.693Z,101097.98
2018-12-27T14:39:07.131Z,101100.12
2018-12-27T14:41:36.277Z,101095.38
2018-12-27T14:44:05.409Z,101098.00
2018-12-27T14:46:34.620Z,101092.91
2018-12-27T14:49:03.750Z,101092.74
2018-12-27T14:51:32.889Z,101089.98
2018-12-27T14:54:02.024Z,101092.28
2018-12-27T14:56:31.162Z,101090.47
2018-12-27T14:59:00.284Z,101093.09
2018-12-27T15:01:29.422Z,101096.52
2018-12-27T15:03:58.566Z,101098.67
2018-12-27T15:06:27.705Z,101102.43
2018-12-27T15:08:56.863Z,101104.56
2018-12-27T15:11:26.000Z,101111.28
2018-12-27T15:13:55.143Z,101115.05
2018-12-27T15:16:24.270Z,101118.00
2018-12-27T15:18:53.421Z,101120.29
2018-12-27T15:21:22.549Z,101116.67
2018-12-27T15:23:51.692Z,101115.72
2018-12-27T15:26:20.889Z,101116.03
2018-12-27T15:28:50.023Z,101119.79
2018-12-27T15:31:19.148Z,101123.23
2018-12-27T15:33:48.290Z,101124.05
2018-12-27T15:36:17.436Z,101125.55
2018-12-27T15:38:46.570Z,101128.48
2018-12-27T15:41:15.703Z,101126.03
2018-12-27T15:43:44.877Z,101124.90
2018-12-27T15:46:14.021Z,101127.52
2018-12-27T15:48:43.189Z,101117.52
2018-12-27T15:51:12.354Z,101114.89
2018-12-27T15:53:41.540Z,101111.28
2018-12-27T15:56:10.676Z,101114.41
2018-12-27T15:58:39.843Z,101116.21
2018-12-27T16:01:08.985Z,101119.48
2018-12-27T16:03:38.278Z,101121.63
2018-12-27T16:06:07.448Z,101125.22
2018-12-27T16:08:36.604Z,101133.58
2018-12-27T16:11:05.813Z,101129.97
2018-12-27T16:13:35.059Z,101130.63
2018-12-27T16:16:04.266Z,101129.81
2018-12-27T16:18:33.409Z,101131.45
2018-12-27T16:21:02.549Z,101124.70
2018-12-27T16:23:31.707Z,101124.56
2018-12-27T16:26:00.839Z,101118.01
2018-12-27T16:28:30.013Z,101117.34
2018-12-27T16:30:59.387Z,101131.12
2018-12-27T16:33:28.539Z,101125.06
2018-12-27T16:35:57.684Z,101128.31
2018-12-27T16:38:27.177Z,101123.59
2018-12-27T16:40:56.362Z,101124.55
2018-12-27T16:43:25.640Z,101122.09
2018-12-27T16:45:54.820Z,101124.22
2018-12-27T16:48:24.011Z,101115.70
2018-12-27T16:50:53.140Z,101117.17
2018-12-27T16:53:22.429Z,101106.34
2018-12-27T16:55:51.639Z,101107.98
2018-12-27T16:58:20.821Z,101108.48
2018-12-27T17:00:49.950Z,101107.66
2018-12-27T17:03:19.197Z,101104.89
2018-12-27T17:05:48.394Z,101100.78
2018-12-27T17:08:17.573Z,101100.30
2018-12-27T17:10:46.717Z,101092.92
2018-12-27T17:13:15.917Z,101095.36
2018-12-27T17:15:45.080Z,101103.58
2018-12-27T17:18:14.214Z,101104.56
2018-12-27T17:20:43.447Z,101103.74
2018-12-27T17:23:12.712Z,101104.56
2018-12-27T17:25:41.897Z,101103.56
2018-12-27T17:28:11.041Z,101118.66
2018-12-27T17:30:40.196Z,101115.22
2018-12-27T17:33:09.399Z,101113.09
2018-12-27T17:35:38.558Z,101121.28
2018-12-27T17:38:07.695Z,101127.99
2018-12-27T17:40:36.908Z,101125.36
2018-12-27T17:43:06.002Z,101127.50
2018-12-27T17:45:35.172Z,101124.38
2018-12-27T17:48:04.376Z,101127.35
2018-12-27T17:50:33.811Z,101128.48
2018-12-27T17:53:03.103Z,101126.34
2018-12-27T17:55:32.294Z,101126.18
2018-12-27T17:58:01.422Z,101128.00
2018-12-27T18:00:30.573Z,101125.03
2018-12-27T18:02:59.722Z,101122.73
2018-12-27T18:05:28.883Z,101117.16
2018-12-27T18:07:58.054Z,101120.78
2018-12-27T18:10:27.216Z,101125.69
2018-12-27T18:12:56.356Z,101126.83
2018-12-27T18:15:25.613Z,101126.05
2018-12-27T18:17:54.753Z,101123.42
2018-12-27T18:20:23.918Z,101121.91
2018-12-27T18:22:53.070Z,101126.70
2018-12-27T18:25:22.380Z,101131.44
2018-12-27T18:27:51.519Z,101137.34
2018-12-27T18:30:20.690Z,101135.20
2018-12-27T18:32:49.806Z,101133.41
2018-12-27T18:35:18.958Z,101136.36
2018-12-27T18:37:48.108Z,101135.86
2018-12-27T18:40:17.264Z,101134.05
2018-12-27T18:42:46.393Z,101136.52
2018-12-27T18:45:15.542Z,101135.70
2018-12-27T18:47:44.742Z,101131.45
2018-12-27T18:50:13.909Z,101141.27
2018-12-27T18:52:43.041Z,101143.09
2018-12-27T18:55:12.194Z,101138.02
2018-12-27T18:57:41.337Z,101138.34
2018-12-27T19:00:11.590Z,101132.60
2018-12-27T19:02:42.071Z,101135.05
2018-12-27T19:05:11.465Z,101130.77
2018-12-27T19:07:44.885Z,101136.38
2018-12-27T19:10:11.501Z,101143.88
2018-12-27T19:13:10.412Z,101134.89
2018-12-27T19:15:44.730Z,101120.45
2018-12-27T19:18:25.727Z,101131.59
2018-12-27T19:20:59.157Z,101146.34
2018-12-27T19:23:29.263Z,101147.33
2018-12-27T19:25:58.389Z,101139.30
2018-12-27T19:28:27.533Z,101138.80
2018-12-27T19:30:56.833Z,101145.86
2018-12-27T19:33:25.932Z,101152.41
2018-12-27T19:35:55.152Z,101150.27
2018-12-27T19:38:24.430Z,101157.32
2018-12-27T19:40:53.666Z,101167.48
2018-12-27T19:43:23.086Z,101173.39
2018-12-27T19:45:52.447Z,101166.34
2018-12-27T19:48:21.896Z,101175.38
2018-12-27T19:50:51.125Z,101178.32
2018-12-27T19:53:20.379Z,101170.94
2018-12-27T19:55:49.517Z,101162.42
2018-12-27T19:58:18.666Z,101160.45
2018-12-27T20:00:47.876Z,101154.55
2018-12-27T20:03:17.093Z,101162.41
2018-12-27T20:05:46.302Z,101173.23
2018-12-27T20:08:15.529Z,101166.34
2018-12-27T20:10:44.885Z,101161.59
2018-12-27T20:13:13.992Z,101161.27
2018-12-27T20:15:43.122Z,101151.59
2018-12-27T20:18:12.298Z,101149.30
2018-12-27T20:20:41.458Z,101145.37
2018-12-27T20:23:10.611Z,101151.59
2018-12-27T20:25:39.749Z,101155.37
2018-12-27T20:28:08.911Z,101157.66
2018-12-27T20:30:38.049Z,101149.14
2018-12-27T20:33:07.205Z,101144.88
2018-12-27T20:35:36.341Z,101141.78
2018-12-27T20:38:06.858Z,101143.89
2018-12-27T20:40:36.213Z,101148.66
2018-12-27T20:43:05.364Z,101155.70
2018-12-27T20:45:34.529Z,101151.77
2018-12-27T20:48:03.854Z,101143.55
2018-12-27T20:50:32.999Z,101140.44
2018-12-27T20:53:02.195Z,101141.75
2018-12-27T20:55:31.400Z,101145.84
2018-12-27T20:58:00.596Z,101141.78
2018-12-27T21:00:29.710Z,101141.45
2018-12-27T21:02:58.856Z,101148.30
2018-12-27T21:05:28.200Z,101144.05
2018-12-27T21:07:57.362Z,101143.22
2018-12-27T21:10:26.515Z,101143.88
2018-12-27T21:12:55.706Z,101152.73
2018-12-27T21:15:24.870Z,101155.69
2018-12-27T21:17:54.023Z,101158.30
2018-12-27T21:20:23.187Z,101162.09
2018-12-27T21:22:52.337Z,101162.91
2018-12-27T21:25:21.859Z,101165.02
2018-12-27T21:27:51.017Z,101177.48
2018-12-27T21:30:20.199Z,101166.84
2018-12-27T21:32:49.386Z,101163.56
2018-12-27T21:35:18.520Z,101156.52
2018-12-27T21:37:47.682Z,101155.52
2018-12-27T21:40:16.821Z,101160.45
2018-12-27T21:42:45.963Z,101153.89
2018-12-27T21:45:15.115Z,101162.41
2018-12-27T21:47:44.248Z,101154.70
2018-12-27T21:50:13.395Z,101149.95
2018-12-27T21:52:42.553Z,101150.45
2018-12-27T21:55:11.705Z,101150.12
2018-12-27T21:57:40.881Z,101155.86
2018-12-27T22:00:10.898Z,101155.54
2018-12-27T22:02:40.064Z,101153.71
2018-12-27T22:05:09.212Z,101152.56
2018-12-27T22:07:38.395Z,101151.28
2018-12-27T22:10:08.217Z,101149.64
2018-12-27T22:12:37.364Z,101149.77
2018-12-27T22:15:06.595Z,101147.48
2018-12-27T22:17:35.731Z,101138.98
2018-12-27T22:20:04.897Z,101137.17
2018-12-27T22:22:34.052Z,101129.63
2018-12-27T22:25:03.227Z,101130.94
2018-12-27T22:27:32.378Z,101133.89
2018-12-27T22:30:01.520Z,101127.67
2018-12-27T22:32:30.676Z,101118.00
2018-12-27T22:34:59.832Z,101117.17
2018-12-27T22:37:28.965Z,101117.02
2018-12-27T22:39:58.117Z,101110.27
2018-12-27T22:42:27.262Z,101112.73
2018-12-27T22:44:56.412Z,101114.70
2018-12-27T22:47:25.557Z,101103.39
2018-12-27T22:49:54.732Z,101101.75
2018-12-27T22:52:23.878Z,101098.81
2018-12-27T22:54:53.040Z,101088.48
2018-12-27T22:57:22.178Z,101095.53
2018-12-27T22:59:51.324Z,101091.61
2018-12-27T23:02:20.456Z,101092.75
2018-12-27T23:04:49.629Z,101086.86
2018-12-27T23:07:18.759Z,101080.30
2018-12-27T23:09:47.945Z,101092.08
2018-12-27T23:12:17.066Z,101098.14
2018-12-27T23:14:46.309Z,101105.52
2018-12-27T23:17:15.441Z,101102.43
2018-12-27T23:19:44.603Z,101096.20
2018-12-27T23:22:13.745Z,101098.98
2018-12-27T23:24:42.918Z,101097.98
2018-12-27T23:27:12.052Z,101095.22
2018-12-27T23:29:41.209Z,101102.41
2018-12-27T23:32:10.334Z,101099.97
2018-12-27T23:34:39.512Z,101099.62
2018-12-27T23:37:08.662Z,101109.14
2018-12-27T23:39:37.832Z,101116.36
2018-12-27T23:42:06.970Z,101122.09
2018-12-27T23:44:36.109Z,101121.77
2018-12-27T23:47:05.236Z,101125.03
2018-12-27T23:49:34.389Z,101124.39
2018-12-27T23:52:03.512Z,101121.91
2018-12-27T23:54:32.652Z,101121.59
2018-12-27T23:57:01.807Z,101121.76
2018-12-27T23:59:30.957Z,101115.20
